createdAt,value
2018-07-01T00:01:49.821Z,33.70
2018-07-01T00:04:18.019Z,34.20
2018-07-01T00:06:46.284Z,33.10
2018-07-01T00:09:15.257Z,32.30
2018-07-01T00:11:43.475Z,32.20
2018-07-01T00:14:11.679Z,35.80
2018-07-01T00:16:39.939Z,33.40
2018-07-01T00:19:08.182Z,33.70
2018-07-01T00:21:37.629Z,36.80
2018-07-01T00:24:05.875Z,36.80
2018-07-01T00:26:34.123Z,34.20
2018-07-01T00:29:02.367Z,34.10
2018-07-01T00:31:30.576Z,33.50
2018-07-01T00:33:58.824Z,34.60
2018-07-01T00:36:27.040Z,34.40
2018-07-01T00:38:56.067Z,36.60
2018-07-01T00:41:24.320Z,36.60
2018-07-01T00:43:53.333Z,34.00
2018-07-01T00:46:21.586Z,34.00
2018-07-01T00:48:50.552Z,34.80
2018-07-01T00:51:18.827Z,34.60
2018-07-01T00:53:47.022Z,35.30
2018-07-01T00:56:15.282Z,33.40
2018-07-01T00:58:43.500Z,34.00
2018-07-01T01:01:11.754Z,34.30
2018-07-01T01:03:40.007Z,35.10
2018-07-01T01:06:08.232Z,33.60
2018-07-01T01:08:36.452Z,34.00
2018-07-01T01:11:05.486Z,34.00
2018-07-01T01:13:34.439Z,33.30
2018-07-01T01:16:02.714Z,33.20
2018-07-01T01:18:30.912Z,33.00
2018-07-01T01:20:59.174Z,33.10
2018-07-01T01:23:27.373Z,32.80
2018-07-01T01:25:55.604Z,33.10
2018-07-01T01:28:23.909Z,33.60
2018-07-01T01:30:52.178Z,32.70
2018-07-01T01:33:20.415Z,33.10
2018-07-01T01:35:48.648Z,33.60
2018-07-01T01:38:16.897Z,34.00
2018-07-01T01:40:45.118Z,33.50
2018-07-01T01:43:14.131Z,34.60
2018-07-01T01:45:43.107Z,33.90
2018-07-01T01:48:12.127Z,34.70
2018-07-01T01:50:40.400Z,34.60
2018-07-01T01:53:08.637Z,37.60
2018-07-01T01:55:36.853Z,36.20
2018-07-01T01:58:05.078Z,40.40
2018-07-01T02:00:33.333Z,38.70
2018-07-01T02:03:01.597Z,36.00
2018-07-01T02:05:29.779Z,37.60
2018-07-01T02:07:58.042Z,35.20
2018-07-01T02:10:26.275Z,34.80
2018-07-01T02:12:54.535Z,36.10
2018-07-01T02:15:22.785Z,36.50
2018-07-01T02:17:51.005Z,36.30
2018-07-01T02:20:19.256Z,35.80
2018-07-01T02:22:47.459Z,34.40
2018-07-01T02:25:16.445Z,35.00
2018-07-01T02:27:44.674Z,35.40
2018-07-01T02:30:12.921Z,34.60
2018-07-01T02:32:41.934Z,34.80
2018-07-01T02:35:10.129Z,34.80
2018-07-01T02:37:38.355Z,34.80
2018-07-01T02:40:07.340Z,35.40
2018-07-01T02:42:35.596Z,35.50
2018-07-01T02:45:04.567Z,35.60
2018-07-01T02:47:32.796Z,35.60
2018-07-01T02:50:01.819Z,37.80
2018-07-01T02:52:30.089Z,38.00
2018-07-01T02:54:59.035Z,39.10
2018-07-01T02:57:27.267Z,39.20
2018-07-01T02:59:55.506Z,36.00
2018-07-01T03:02:23.767Z,36.50
2018-07-01T03:04:52.007Z,35.40
2018-07-01T03:07:20.212Z,34.20
2018-07-01T03:09:48.665Z,34.80
2018-07-01T03:12:17.602Z,37.50
2018-07-01T03:14:45.876Z,37.40
2018-07-01T03:17:14.085Z,41.80
2018-07-01T03:19:42.360Z,36.80
2018-07-01T03:22:11.386Z,36.40
2018-07-01T03:24:39.671Z,36.40
2018-07-01T03:27:07.858Z,36.50
2018-07-01T03:29:36.110Z,37.60
2018-07-01T03:32:04.306Z,36.70
2018-07-01T03:34:32.572Z,36.30
2018-07-01T03:37:00.820Z,36.80
2018-07-01T03:39:29.080Z,37.80
2018-07-01T03:41:58.040Z,37.10
2018-07-01T03:44:26.310Z,36.30
2018-07-01T03:46:54.504Z,35.30
2018-07-01T03:49:22.775Z,34.90
2018-07-01T03:51:51.010Z,35.00
2018-07-01T03:54:19.248Z,34.80
2018-07-01T03:56:47.438Z,35.30
2018-07-01T03:59:16.436Z,34.90
2018-07-01T04:01:45.496Z,34.70
2018-07-01T04:04:13.715Z,34.60
2018-07-01T04:06:42.690Z,34.70
2018-07-01T04:09:11.683Z,35.30
2018-07-01T04:11:40.704Z,36.30
2018-07-01T04:14:08.946Z,36.30
2018-07-01T04:16:37.196Z,39.60
2018-07-01T04:19:05.404Z,39.60
2018-07-01T04:21:34.380Z,36.50
2018-07-01T04:24:02.611Z,36.60
2018-07-01T04:26:30.814Z,35.30
2018-07-01T04:28:59.083Z,35.60
2018-07-01T04:31:27.328Z,35.50
2018-07-01T04:33:55.579Z,35.70
2018-07-01T04:36:23.845Z,39.20
2018-07-01T04:38:52.087Z,45.00
2018-07-01T04:41:20.299Z,43.80
2018-07-01T04:43:48.591Z,43.00
2018-07-01T04:46:17.562Z,43.30
2018-07-01T04:48:45.816Z,43.20
2018-07-01T04:51:14.020Z,46.70
2018-07-01T04:53:42.298Z,47.90
2018-07-01T04:56:10.506Z,44.60
2018-07-01T04:58:38.733Z,42.10
2018-07-01T05:01:06.988Z,42.20
2018-07-01T05:03:35.201Z,45.50
2018-07-01T05:06:03.407Z,49.30
2018-07-01T05:08:31.667Z,48.40
2018-07-01T05:11:00.633Z,44.10
2018-07-01T05:13:28.872Z,43.40
2018-07-01T05:15:57.127Z,40.90
2018-07-01T05:18:26.139Z,45.00
2018-07-01T05:20:54.353Z,45.00
2018-07-01T05:23:22.687Z,42.40
2018-07-01T05:25:51.655Z,42.70
2018-07-01T05:28:20.636Z,45.70
2018-07-01T05:30:48.869Z,45.70
2018-07-01T05:33:17.085Z,42.70
2018-07-01T05:35:45.351Z,41.40
2018-07-01T05:38:13.594Z,41.50
2018-07-01T05:40:41.857Z,42.20
2018-07-01T05:43:10.051Z,42.60
2018-07-01T05:45:38.277Z,42.00
2018-07-01T05:48:06.548Z,41.10
2018-07-01T05:50:34.753Z,42.10
2018-07-01T05:53:03.005Z,43.00
2018-07-01T05:55:31.259Z,40.90
2018-07-01T05:57:59.469Z,40.40
2018-07-01T06:00:28.447Z,40.00
2018-07-01T06:02:57.477Z,40.10
2018-07-01T06:05:25.689Z,40.10
2018-07-01T06:07:54.002Z,40.00
2018-07-01T06:10:22.205Z,39.50
2018-07-01T06:12:50.410Z,39.80
2018-07-01T06:15:18.729Z,40.50
2018-07-01T06:17:46.895Z,40.70
2018-07-01T06:20:15.123Z,39.90
2018-07-01T06:22:43.385Z,39.60
2018-07-01T06:25:12.403Z,39.40
2018-07-01T06:27:40.659Z,39.40
2018-07-01T06:30:09.646Z,39.30
2018-07-01T06:32:38.664Z,39.80
2018-07-01T06:35:06.925Z,39.80
2018-07-01T06:37:35.126Z,39.30
2018-07-01T06:40:03.383Z,39.40
2018-07-01T06:42:31.639Z,39.30
2018-07-01T06:45:00.663Z,39.20
2018-07-01T06:47:28.919Z,39.20
2018-07-01T06:49:57.942Z,39.10
2018-07-01T06:52:26.187Z,39.10
2018-07-01T06:54:55.229Z,38.80
2018-07-01T06:57:23.438Z,38.80
2018-07-01T06:59:52.468Z,39.00
2018-07-01T07:02:20.742Z,38.50
2018-07-01T07:04:48.905Z,38.90
2018-07-01T07:07:17.126Z,38.80
2018-07-01T07:09:45.410Z,39.20
2018-07-01T07:12:13.668Z,38.80
2018-07-01T07:14:41.929Z,37.80
2018-07-01T07:17:10.152Z,38.30
2018-07-01T07:19:38.384Z,37.70
2018-07-01T07:22:06.596Z,38.10
2018-07-01T07:24:35.596Z,38.40
2018-07-01T07:27:03.842Z,38.50
2018-07-01T07:29:32.091Z,37.50
2018-07-01T07:32:01.121Z,36.60
2018-07-01T07:34:29.327Z,36.60
2018-07-01T07:36:57.560Z,37.30
2018-07-01T07:39:25.828Z,37.30
2018-07-01T07:41:54.078Z,35.10
2018-07-01T07:44:23.058Z,35.90
2018-07-01T07:46:51.305Z,35.80
2018-07-01T07:49:19.526Z,35.60
2018-07-01T07:51:48.549Z,36.90
2018-07-01T07:54:16.759Z,36.80
2018-07-01T07:56:44.989Z,35.40
2018-07-01T07:59:13.211Z,36.60
2018-07-01T08:01:41.492Z,35.40
2018-07-01T08:04:10.526Z,36.10
2018-07-01T08:06:39.501Z,35.70
2018-07-01T08:09:07.724Z,35.60
2018-07-01T08:11:35.986Z,35.70
2018-07-01T08:14:04.209Z,34.50
2018-07-01T08:16:32.452Z,35.00
2018-07-01T08:19:01.861Z,35.80
2018-07-01T08:21:30.076Z,36.70
2018-07-01T08:23:58.364Z,36.10
2018-07-01T08:26:26.553Z,35.80
2018-07-01T08:28:54.843Z,35.00
2018-07-01T08:31:23.817Z,34.80
2018-07-01T08:33:52.795Z,35.60
2018-07-01T08:36:21.077Z,35.10
2018-07-01T08:38:49.309Z,35.80
2018-07-01T08:41:17.599Z,35.90
2018-07-01T08:43:45.805Z,35.30
2018-07-01T08:46:14.097Z,35.60
2018-07-01T08:48:42.261Z,35.40
2018-07-01T08:51:11.258Z,36.40
2018-07-01T08:53:39.467Z,36.00
2018-07-01T08:56:07.759Z,35.50
2018-07-01T08:58:36.015Z,34.90
2018-07-01T09:01:04.230Z,35.90
2018-07-01T09:03:32.484Z,35.60
2018-07-01T09:06:00.696Z,35.40
2018-07-01T09:08:28.943Z,36.00
2018-07-01T09:10:57.180Z,35.30
2018-07-01T09:13:26.196Z,35.60
2018-07-01T09:15:54.458Z,35.60
2018-07-01T09:18:23.439Z,34.30
2018-07-01T09:20:52.496Z,35.60
2018-07-01T09:23:20.740Z,35.60
2018-07-01T09:25:49.003Z,36.30
2018-07-01T09:28:17.961Z,34.00
2018-07-01T09:30:46.222Z,34.10
2018-07-01T09:33:14.417Z,35.00
2018-07-01T09:35:42.644Z,34.90
2018-07-01T09:38:10.867Z,33.70
2018-07-01T09:40:39.153Z,33.80
2018-07-01T09:43:07.455Z,34.90
2018-07-01T09:45:36.448Z,33.90
2018-07-01T09:48:05.414Z,33.90
2018-07-01T09:50:33.708Z,33.80
2018-07-01T09:53:01.901Z,35.40
2018-07-01T09:55:30.128Z,35.30
2018-07-01T09:57:58.336Z,34.90
2018-07-01T10:00:27.336Z,35.60
2018-07-01T10:02:56.305Z,35.70
2018-07-01T10:05:24.520Z,35.70
2018-07-01T10:07:52.749Z,34.80
2018-07-01T10:10:20.979Z,35.70
2018-07-01T10:12:49.267Z,35.70
2018-07-01T10:15:17.515Z,35.80
2018-07-01T10:17:45.787Z,35.70
2018-07-01T10:20:14.801Z,33.50
2018-07-01T10:22:43.020Z,34.00
2018-07-01T10:25:12.050Z,35.00
2018-07-01T10:27:41.012Z,35.60
2018-07-01T10:30:09.297Z,35.60
2018-07-01T10:32:37.549Z,35.40
2018-07-01T10:35:05.808Z,34.00
2018-07-01T10:37:34.005Z,34.80
2018-07-01T10:40:02.261Z,35.40
2018-07-01T10:42:30.511Z,35.10
2018-07-01T10:44:59.519Z,35.20
2018-07-01T10:47:27.771Z,35.20
2018-07-01T10:49:56.748Z,35.80
2018-07-01T10:52:24.961Z,35.80
2018-07-01T10:54:53.236Z,34.40
2018-07-01T10:57:21.426Z,34.80
2018-07-01T10:59:49.720Z,34.80
2018-07-01T11:02:17.958Z,34.90
2018-07-01T11:04:46.960Z,35.20
2018-07-01T11:07:15.162Z,35.00
2018-07-01T11:09:43.432Z,34.40
2018-07-01T11:12:11.689Z,35.40
2018-07-01T11:14:39.961Z,33.80
2018-07-01T11:17:08.924Z,34.70
2018-07-01T11:19:37.183Z,34.70
2018-07-01T11:22:05.392Z,33.60
2018-07-01T11:24:34.434Z,34.70
2018-07-01T11:27:02.742Z,34.70
2018-07-01T11:29:31.647Z,34.20
2018-07-01T11:31:59.913Z,34.20
2018-07-01T11:34:28.159Z,35.20
2018-07-01T11:36:56.389Z,34.60
2018-07-01T11:39:25.385Z,34.40
2018-07-01T11:41:54.374Z,33.40
2018-07-01T11:44:23.337Z,34.60
2018-07-01T11:46:51.612Z,34.60
2018-07-01T11:49:19.829Z,33.50
2018-07-01T11:51:48.091Z,32.00
2018-07-01T11:54:17.055Z,34.50
2018-07-01T11:56:45.325Z,34.20
2018-07-01T11:59:13.527Z,34.50
2018-07-01T12:01:41.801Z,31.90
2018-07-01T12:04:10.017Z,33.70
2018-07-01T12:06:38.252Z,33.60
2018-07-01T12:09:06.469Z,33.30
2018-07-01T12:11:34.706Z,33.90
2018-07-01T12:14:02.913Z,33.30
2018-07-01T12:16:31.180Z,30.60
2018-07-01T12:19:00.210Z,30.40
2018-07-01T12:21:28.490Z,30.00
2018-07-01T12:23:56.698Z,31.10
2018-07-01T12:26:24.952Z,31.40
2018-07-01T12:28:53.282Z,33.00
2018-07-01T12:31:22.206Z,32.00
2018-07-01T12:33:50.450Z,32.10
2018-07-01T12:36:19.425Z,31.00
2018-07-01T12:38:47.636Z,31.20
2018-07-01T12:41:15.843Z,32.40
2018-07-01T12:43:44.079Z,32.40
2018-07-01T12:46:13.082Z,27.90
2018-07-01T12:48:41.356Z,27.70
2018-07-01T12:51:10.370Z,33.40
2018-07-01T12:53:38.622Z,33.40
2018-07-01T12:56:07.650Z,29.60
2018-07-01T12:58:36.685Z,30.30
2018-07-01T13:01:04.887Z,30.40
2018-07-01T13:03:33.869Z,31.20
2018-07-01T13:06:02.892Z,29.00
2018-07-01T13:08:31.191Z,29.00
2018-07-01T13:10:59.426Z,27.70
2018-07-01T13:13:28.432Z,30.80
2018-07-01T13:15:56.658Z,30.70
2018-07-01T13:18:24.939Z,30.30
2018-07-01T13:20:53.092Z,31.50
2018-07-01T13:23:21.370Z,32.60
2018-07-01T13:25:49.584Z,25.70
2018-07-01T13:28:17.824Z,31.90
2018-07-01T13:30:46.138Z,30.80
2018-07-01T13:33:14.402Z,31.20
2018-07-01T13:35:42.646Z,28.70
2018-07-01T13:38:10.912Z,31.90
2018-07-01T13:40:39.136Z,30.70
2018-07-01T13:43:07.366Z,31.10
2018-07-01T13:45:35.626Z,31.40
2018-07-01T13:48:03.846Z,29.70
2018-07-01T13:50:32.106Z,30.00
2018-07-01T13:53:00.371Z,29.10
2018-07-01T13:55:28.614Z,26.60
2018-07-01T13:57:57.640Z,31.00
2018-07-01T14:00:25.885Z,31.00
2018-07-01T14:02:54.876Z,29.30
2018-07-01T14:05:23.910Z,30.30
2018-07-01T14:07:52.122Z,30.30
2018-07-01T14:10:20.335Z,29.00
2018-07-01T14:12:48.560Z,29.10
2018-07-01T14:15:16.821Z,29.20
2018-07-01T14:17:45.055Z,29.70
2018-07-01T14:20:14.038Z,30.30
2018-07-01T14:22:43.068Z,30.20
2018-07-01T14:25:11.311Z,30.10
2018-07-01T14:27:39.537Z,29.70
2018-07-01T14:30:07.765Z,29.60
2018-07-01T14:32:36.832Z,27.50
2018-07-01T14:35:05.073Z,27.70
2018-07-01T14:37:33.336Z,29.30
2018-07-01T14:40:01.602Z,27.70
2018-07-01T14:42:30.624Z,28.70
2018-07-01T14:44:58.836Z,28.60
2018-07-01T14:47:27.069Z,29.70
2018-07-01T14:49:55.277Z,29.70
2018-07-01T14:52:23.556Z,24.50
2018-07-01T14:54:51.846Z,27.50
2018-07-01T14:57:20.059Z,27.80
2018-07-01T14:59:49.078Z,29.20
2018-07-01T15:02:17.297Z,29.70
2018-07-01T15:04:45.583Z,28.70
2018-07-01T15:07:13.814Z,28.40
2018-07-01T15:09:42.026Z,27.70
2018-07-01T15:12:10.304Z,26.10
2018-07-01T15:14:38.511Z,28.20
2018-07-01T15:17:07.537Z,28.60
2018-07-01T15:19:35.796Z,28.60
2018-07-01T15:22:04.088Z,29.40
2018-07-01T15:24:33.127Z,28.60
2018-07-01T15:27:01.364Z,28.50
2018-07-01T15:29:29.636Z,28.50
2018-07-01T15:31:57.849Z,28.30
2018-07-01T15:34:26.132Z,29.00
2018-07-01T15:36:54.342Z,25.60
2018-07-01T15:39:22.580Z,27.60
2018-07-01T15:41:50.828Z,25.80
2018-07-01T15:44:19.107Z,27.40
2018-07-01T15:46:47.358Z,26.60
2018-07-01T15:49:15.633Z,26.30
2018-07-01T15:51:43.854Z,28.40
2018-07-01T15:54:12.120Z,25.00
2018-07-01T15:56:40.325Z,27.70
2018-07-01T15:59:08.580Z,24.90
2018-07-01T16:01:37.106Z,25.10
2018-07-01T16:04:05.324Z,27.70
2018-07-01T16:06:33.589Z,28.20
2018-07-01T16:09:01.801Z,26.40
2018-07-01T16:11:30.080Z,21.50
2018-07-01T16:13:58.329Z,26.80
2018-07-01T16:16:26.548Z,25.50
2018-07-01T16:18:55.580Z,27.20
2018-07-01T16:21:23.797Z,27.00
2018-07-01T16:23:52.061Z,25.50
2018-07-01T16:26:20.327Z,25.80
2018-07-01T16:28:48.588Z,27.90
2018-07-01T16:31:16.818Z,25.30
2018-07-01T16:33:45.098Z,27.70
2018-07-01T16:36:13.347Z,28.40
2018-07-01T16:38:41.588Z,26.30
2018-07-01T16:41:09.840Z,27.50
2018-07-01T16:43:38.068Z,28.30
2018-07-01T16:46:06.344Z,28.40
2018-07-01T16:48:34.541Z,26.20
2018-07-01T16:51:02.783Z,26.40
2018-07-01T16:53:30.993Z,24.00
2018-07-01T16:55:59.228Z,22.60
2018-07-01T16:58:27.497Z,27.00
2018-07-01T17:00:56.489Z,23.90
2018-07-01T17:03:24.703Z,24.00
2018-07-01T17:05:52.976Z,23.70
2018-07-01T17:08:21.198Z,27.80
2018-07-01T17:10:50.203Z,27.30
2018-07-01T17:13:19.226Z,22.70
2018-07-01T17:15:47.397Z,22.70
2018-07-01T17:18:15.607Z,26.30
2018-07-01T17:20:43.847Z,26.20
2018-07-01T17:23:12.062Z,26.60
2018-07-01T17:25:40.324Z,24.10
2018-07-01T17:28:08.585Z,24.90
2018-07-01T17:30:36.838Z,24.60
2018-07-01T17:33:20.758Z,25.20
2018-07-01T17:35:49.802Z,26.10
2018-07-01T17:38:18.028Z,26.10
2018-07-01T17:40:46.306Z,24.10
2018-07-01T17:43:14.554Z,26.80
2018-07-01T17:45:42.828Z,25.90
2018-07-01T17:48:11.095Z,26.10
2018-07-01T17:50:39.355Z,25.00
2018-07-01T17:53:07.616Z,27.00
2018-07-01T17:55:36.588Z,25.40
2018-07-01T17:58:05.627Z,26.40
2018-07-01T18:00:33.889Z,26.40
2018-07-01T18:03:02.233Z,26.90
2018-07-01T18:05:30.509Z,27.40
2018-07-01T18:07:58.761Z,27.40
2018-07-01T18:10:27.085Z,26.70
2018-07-01T18:12:56.101Z,27.00
2018-07-01T18:15:24.381Z,27.00
2018-07-01T18:17:52.631Z,27.80
2018-07-01T18:20:21.660Z,27.50
2018-07-01T18:23:18.239Z,27.50
2018-07-01T18:25:18.153Z,27.90
2018-07-01T18:27:52.581Z,26.80
2018-07-01T18:30:15.668Z,26.70
2018-07-01T18:32:43.931Z,26.70
2018-07-01T18:35:12.950Z,26.40
2018-07-01T18:37:41.157Z,26.40
2018-07-01T18:40:09.468Z,27.40
2018-07-01T18:42:37.677Z,26.20
2018-07-01T18:45:05.932Z,26.60
2018-07-01T18:47:34.957Z,26.70
2018-07-01T18:50:03.335Z,26.70
2018-07-01T18:52:31.534Z,27.20
2018-07-01T18:54:59.811Z,27.30
2018-07-01T18:57:28.054Z,27.00
2018-07-01T18:59:56.290Z,27.10
2018-07-01T19:02:24.542Z,26.90
2018-07-01T19:04:52.918Z,27.50
2018-07-01T19:07:21.185Z,27.20
2018-07-01T19:09:49.435Z,27.10
2018-07-01T19:12:17.701Z,27.30
2018-07-01T19:14:46.667Z,27.30
2018-07-01T19:17:14.900Z,27.30
2018-07-01T19:19:43.157Z,27.20
2018-07-01T19:22:11.379Z,27.40
2018-07-01T19:24:39.592Z,27.30
2018-07-01T19:27:08.623Z,27.30
2018-07-01T19:29:36.893Z,27.30
2018-07-01T19:32:05.149Z,27.30
2018-07-01T19:34:35.022Z,27.30
2018-07-01T19:37:03.241Z,27.30
2018-07-01T19:39:31.443Z,27.40
2018-07-01T19:41:59.680Z,27.30
2018-07-01T19:44:28.677Z,27.50
2018-07-01T19:46:57.789Z,27.40
2018-07-01T19:49:26.015Z,27.50
2018-07-01T19:51:55.006Z,27.40
2018-07-01T19:54:23.266Z,27.50
2018-07-01T19:56:51.521Z,27.50
2018-07-01T19:59:19.771Z,27.50
2018-07-01T20:01:48.148Z,27.40
2018-07-01T20:04:16.337Z,27.70
2018-07-01T20:06:44.610Z,27.50
2018-07-01T20:09:13.647Z,27.70
2018-07-01T20:11:41.850Z,27.70
2018-07-01T20:14:10.109Z,27.70
2018-07-01T20:16:38.388Z,27.50
2018-07-01T20:19:06.597Z,27.60
2018-07-01T20:21:34.910Z,27.70
2018-07-01T20:24:03.172Z,27.70
2018-07-01T20:26:32.194Z,28.00
2018-07-01T20:29:00.441Z,27.50
2018-07-01T20:31:29.435Z,27.60
2018-07-01T20:33:58.411Z,27.60
2018-07-01T20:36:27.431Z,27.90
2018-07-01T20:38:55.695Z,27.60
2018-07-01T20:41:23.946Z,27.40
2018-07-01T20:43:52.200Z,27.40
2018-07-01T20:46:20.466Z,27.80
2018-07-01T20:48:48.676Z,27.50
2018-07-01T20:51:16.963Z,27.50
2018-07-01T20:53:45.171Z,27.40
2018-07-01T20:56:13.439Z,27.70
2018-07-01T20:58:41.638Z,27.50
2018-07-01T21:01:09.900Z,27.90
2018-07-01T21:03:38.124Z,28.20
2018-07-01T21:06:06.386Z,27.50
2018-07-01T21:08:34.594Z,27.80
2018-07-01T21:11:02.822Z,27.60
2018-07-01T21:13:31.042Z,27.50
2018-07-01T21:15:59.259Z,27.60
2018-07-01T21:18:27.537Z,28.60
2018-07-01T21:20:55.824Z,27.90
2018-07-01T21:23:24.064Z,27.90
2018-07-01T21:25:53.052Z,27.80
2018-07-01T21:28:21.342Z,27.80
2018-07-01T21:30:49.582Z,27.70
2018-07-01T21:33:17.789Z,27.70
2018-07-01T21:35:46.819Z,28.00
2018-07-01T21:38:15.097Z,28.00
2018-07-01T21:40:44.125Z,27.90
2018-07-01T21:43:12.337Z,27.90
2018-07-01T21:45:41.370Z,27.90
2018-07-01T21:48:09.634Z,27.90
2018-07-01T21:50:37.863Z,28.30
2018-07-01T21:53:06.077Z,28.50
2018-07-01T21:55:34.371Z,28.30
2018-07-01T21:58:02.635Z,28.20
2018-07-01T22:00:30.873Z,28.00
2018-07-01T22:02:59.101Z,28.00
2018-07-01T22:05:27.354Z,28.30
2018-07-01T22:07:55.587Z,29.00
2018-07-01T22:10:23.790Z,28.30
2018-07-01T22:12:52.799Z,28.10
2018-07-01T22:15:44.441Z,28.00
2018-07-01T22:18:12.649Z,28.00
2018-07-01T22:20:40.913Z,27.80
2018-07-01T22:23:09.187Z,28.40
2018-07-01T22:25:37.410Z,29.30
2018-07-01T22:28:05.666Z,28.30
2018-07-01T22:30:33.881Z,28.90
2018-07-01T22:33:02.151Z,29.20
2018-07-01T22:35:31.169Z,28.50
2018-07-01T22:37:59.391Z,28.90
2018-07-01T22:40:27.645Z,28.70
2018-07-01T22:42:55.865Z,28.30
2018-07-01T22:45:24.876Z,28.40
2018-07-01T22:47:53.892Z,28.20
2018-07-01T22:50:22.094Z,28.20
2018-07-01T22:52:50.310Z,28.30
2018-07-01T22:55:19.328Z,30.40
2018-07-01T22:57:47.538Z,29.80
2018-07-01T23:00:16.573Z,28.30
2018-07-01T23:02:57.599Z,29.30
2018-07-01T23:05:25.860Z,29.30
2018-07-01T23:07:54.078Z,29.70
2018-07-01T23:10:22.273Z,29.00
2018-07-01T23:12:51.322Z,30.00
2018-07-01T23:15:19.572Z,29.90
2018-07-01T23:17:47.830Z,30.10
2018-07-01T23:20:16.868Z,28.90
2018-07-01T23:22:45.072Z,28.90
2018-07-01T23:25:13.306Z,29.20
2018-07-01T23:27:41.514Z,29.20
2018-07-01T23:30:09.772Z,28.70
2018-07-01T23:32:38.028Z,28.90
2018-07-01T23:35:06.310Z,29.30
2018-07-01T23:37:34.516Z,29.10
2018-07-01T23:40:02.776Z,29.40
2018-07-01T23:42:31.020Z,28.80
2018-07-01T23:45:00.065Z,28.80
2018-07-01T23:47:28.293Z,28.80
2018-07-01T23:49:56.532Z,29.50
2018-07-01T23:52:24.735Z,30.40
2018-07-01T23:54:53.720Z,29.50
2018-07-01T23:57:22.732Z,29.10
2018-07-01T23:59:51.717Z,29.60
